Impacts TAF Board INFO
FOR SITUATIONAL AWARENESS. NOT TO BE USED FOR FLIGHT PLANNING PURPOSES.
IDs:

KPHL - Philadelphia Intl, PA, US

Issued at 2320 UTC 11 Dec 2017
Updated at 0026 UTC 12 Dec 2017
Potential Impact None Slight Moderate High
Time<<13/01Z 13/02Z 13/03Z 13/04Z 13/05Z 13/06Z 13/07Z 13/08Z 13/09Z 13/10Z 13/11Z 13/12Z 13/13Z
Type PRVL PRVL PRVL PRVL PRVL
VIS >6 >6 >6 >6 >6
CIG 60 60 60 60 60
Cover BKN BKN BKN BKN BKN
FltCat VFR VFR VFR VFR VFR
WX -- -- -- -- --
WDir 290 290 290 290 290
WSpd 15 15 15 15 15
WGst 25 25 25 25 25

Raw TAF
KPHL 112320Z 1200/1306 VRB03KT P6SM BKN110
  FM121100 16007KT P6SM OVC070
  FM121500 21008KT P6SM OVC050
  FM122200 29015G25KT P6SM BKN060


METAR Board
Radar Display
Forecast Discussion

FOR SITUATIONAL AWARENESS. NOT TO BE USED FOR FLIGHT PLANNING PURPOSES.